To NAV CANADA Home Page Login to a new session Search on AWWS site Feedback and Comments Disclaimer Vers la page française équivalente Tips FAQ What's new on the site To the Forecasts and Observations / NOTAM section To "File a Flight Plan" website Publications and other links Update of the User's profile FIC Telephone Numbers My Weather Data Folder Route Weather Data Regional Weather Data Local Weather Data To the Forecasts and Observations / NOTAM section
Request Generated 03/28/2017 at 02:21:35 UTC . Weather information available at that time is displayed.

METAR/TAF

GOOSE BAY/NL    

METAR CYYR 280200Z 06005KT 15SM FEW120 M11/M19 A3035 RMK AC0 AURBO SLP281=
METAR CYYR 280100Z 04006KT 15SM FEW120 M11/M18 A3034 RMK AC0 AURBO SLP278=
METAR CYYR 280000Z 00000KT 15SM FEW120 M10/M17 A3034 RMK AC0 AURBO SLP279=

TAF CYYR 272330Z 2800/2824 VRB03KT P6SM FEW120
FM280300 VRB03KT P6SM FEW030
FM281300 04005KT P6SM FEW015 SCT025
RMK NXT FCST BY 280600Z=
Your time UTC time
Weather data provided by Environment Canada and NAV CANADA